Wednesday, December 12, 2018, 11:51 PM EST
Back to Local

KPHL, Philadelphia International Airpt

Location: Philadelphia, PA, United States Lat: 39.867
Local Time: 11:51 PM EST ( 4:51 GMT) Lon: -75.233
Time Zone: US/Eastern Elev: 19 ft

Show me the last for .
Show Decoded

2018-12-12 22:54 METAR KPHL 130354Z 07004KT 10SM BKN180 OVC230 01/M04 A3025 RMK AO2 SLP243
                 T00061039 $ =
2018-12-12 21:54 METAR KPHL 130254Z 17003KT 10SM BKN150 OVC220 02/M04 A3024 RMK AO2 SLP239
                 T00221044 51010 $ =
2018-12-12 20:54 METAR KPHL 130154Z 11005KT 10SM FEW140 SCT200 01/M04 A3023 RMK AO2 SLP235
                 T00111039 $ =
2018-12-12 19:54 METAR KPHL 130054Z 00000KT 10SM BKN140 01/M04 A3023 RMK AO2 SLP237 T00111044 $ =
2018-12-12 18:54 METAR KPHL 122354Z 09004KT 10SM OVC150 03/M03 A3021 RMK AO2 SLP230 T00331028
                 10067 20033 53015 $ =
2018-12-12 17:54 METAR KPHL 122254Z 26004KT 10SM BKN180 04/M04 A3020 RMK AO2 SLP228 T00441044 $ =
2018-12-12 16:54 METAR KPHL 122154Z 36005KT 10SM BKN220 05/M05 A3017 RMK AO2 SLP216 T00501050 $ =
2018-12-12 15:54 METAR KPHL 122054Z 30005KT 10SM BKN220 BKN280 06/M06 A3017 RMK AO2 SLP215
                 T00561061 53004 $ =
2018-12-12 14:54 METAR KPHL 121954Z 31004KT 10SM FEW045 SCT220 BKN270 06/M06 A3015 RMK AO2 SLP210
                 T00561061 $ =
2018-12-12 13:54 METAR KPHL 121854Z 29007KT 10SM FEW046 SCT230 BKN270 06/M06 A3015 RMK AO2 SLP209
                 T00611061 $ =
2018-12-12 12:54 METAR KPHL 121754Z 33005KT 10SM FEW044 BKN270 06/M06 A3016 RMK AO2 SLP211
                 T00561061 10056 21006 58012 =
2018-12-12 11:54 METAR KPHL 121654Z VRB04KT 10SM SCT270 05/M06 A3017 RMK AO2 SLP217 T00501056 =
2018-12-12 10:54 METAR KPHL 121554Z 32010KT 10SM SCT270 04/M06 A3018 RMK AO2 SLP220 T00441056 =
2018-12-12 09:54 METAR KPHL 121454Z 33012G18KT 10SM FEW270 03/M05 A3019 RMK AO2 SLP223 T00331050
                 53019 =
2018-12-12 08:54 METAR KPHL 121354Z 33010KT 10SM FEW270 02/M04 A3017 RMK AO2 SLP216 T00221044 =
2018-12-12 07:54 METAR KPHL 121254Z 31007KT 10SM CLR 01/M05 A3016 RMK AO2 SLP212 T00061050 =
2018-12-12 06:54 METAR KPHL 121154Z 26006KT 10SM CLR M01/M06 A3014 RMK AO2 SLP205 T10061056 10017
                 21006 51023 $ =
2018-12-12 05:54 METAR KPHL 121054Z 30005KT 10SM FEW070 01/M06 A3011 RMK AO2 SLP197 T00111056 $ =
2018-12-12 04:54 METAR KPHL 120954Z 32006KT 10SM CLR 00/M06 A3009 RMK AO2 SLP190 T00001056 $ =
2018-12-12 03:54 METAR KPHL 120854Z 28006KT 10SM OVC065 01/M06 A3007 RMK AO2 SLP182 T00061056
                 52014 $ =
2018-12-12 02:54 METAR KPHL 120754Z 27007KT 10SM OVC060 02/M06 A3006 RMK AO2 SLP177 T00171061 $ =
2018-12-12 01:54 METAR KPHL 120654Z 27008KT 10SM BKN060 OVC075 02/M06 A3004 RMK AO2 SLP172
                 T00171061 $ =
2018-12-12 00:54 METAR KPHL 120554Z 28008KT 10SM BKN055 OVC075 02/M07 A3003 RMK AO2 SLP168
                 T00171067 10022 21006 53001 $ =
2018-12-11 23:54 METAR KPHL 120454Z 26007KT 10SM BKN065 OVC140 00/M06 A3002 RMK AO2 SLP165
                 T00001056 400501044 $ =

Support USWX by starting your Amazon purchase here.